Alianca do Tocantins, Brazil
Current Conditions -  °F | °C
As of 12:00 AM on Sunday 21 Dec 2014 (Local Time) from SBPJ Reporting Station
Light Rain Light Rain  
Wind Chill: 73°   Ceiling: Unl
Heat Index: 73°   Visibility: 6mi
Dew Point: 70°   Wind: 2mph
Humidity: 88%   Direction: 10°N
Pressure: NA   Gusts: NA
Location:  11.31°S, 48.94°W
Report Text: SBPJ 210300Z 01002KT 9999 -RA SCT006 SCT015 FEW025TCU 23/21 Q1015 RETS
Loading
Personal Weather Stations






























Interactive Weather Map New forecast layout! Learn more

10-Day Weather Forecast

Advertisements
Track Severe Weather on mobile